Hauptseite
METAR-TAF:

METAR-TAF

Flughäfen :

Flughafen Phu Quoc

Phú Quốc, Vietnam

Breite: 10-10-18N, Länge: 103-59-28E, Höhe: 11 m

Beobachtung

Neuester Wetterbericht von vor 32 Minuten, um 23:30 UTC
Wind 1 kt aus unterschiedlichen Richtungen
Temperatur 25°C
Luftfeuchtigkeit 94%
Luftdruck 1012 hPa
Sichtweite 10 km oder mehr
Aufgelockert bewölkt in der Höhe von 1500 ft

METAR: VVPQ 222330Z VRB01KT 9999 SCT015 25/24 Q1012 NOSIG

Zeit: 07:02 (00:02 UTC)

Prognose

Neuester Wetterbericht von vor 1 Stunde und 2 Minuten, um 23:00 UTC
Gültige Prognose vom 23 um 00 UTC bis 23 um 24 UTC
Wind 2 kt aus unterschiedlichen Richtungen
Sichtweite 10 km oder mehr
Aufgelockert bewölkt in der Höhe von 1500 ft
Aufgelockert bewölkt in der Höhe von 4000 ft
Übergehend zu
vom 23 um 01 UTC bis 23 um 02 UTC
Wind 10 kt aus Ost/Nordost

TAF: VVPQ 222300Z 2300/2324 VRB02KT 9999 SCT015 SCT040 BECMG 2301/2302 07010KT

Wetterbeobachtungen und Prognosen von mehr als 4000 Flughäfen (METAR und TAF Bericht).

Die verfügbaren Stationen werden durch gelbe und rote Markierungen auf der Karte dargestellt.

Führen Sie die Maus auf sie, um den Namen der Station zu sehen.

Darauf klicken, um die Beobachtung von Wetterbeobachtungen und Prognosen zu sehen.

Um die Karte zu ändern : klicken Sie auf den grünen Tasten mit einem schwarzen Kreuz Zum Vergrößern, auf den grünen Button mit einem Gedankenstrich zu verkleinern, oder auf die grünen Pfeile für benachbarte Karten.


METAR-TAF: